Time;durP1;ratioP1;P1;durP2;ratioP2;P2;SDS_P1;SDS_P2;PMS_P1;PMS_P2;Temp;Humidity;BMP_temperature;BMP_pressure;BME280_temperature;BME280_humidity;BME280_pressure;Samples;Min_cycle;Max_cycle;Signal;HPM_P1;HPM_P2
2023/10/25 00:02:12;;;;;;;9.88;5.85;;;;;;;7.63;100.00;100133.91;5001594;28;20046;-49
2023/10/25 00:04:38;;;;;;;16.02;5.93;;;;;;;7.65;100.00;100139.09;4996530;28;20034;-48
2023/10/25 00:07:03;;;;;;;10.57;5.88;;;;;;;7.63;100.00;100127.75;4997272;28;20061;-48
2023/10/25 00:09:28;;;;;;;11.32;5.85;;;;;;;7.62;100.00;100134.03;4993424;28;20032;-48
2023/10/25 00:11:54;;;;;;;9.70;5.38;;;;;;;7.60;100.00;100129.69;4998097;28;20034;-48
2023/10/25 00:14:19;;;;;;;12.00;5.90;;;;;;;7.59;100.00;100119.25;4993435;28;20021;-48
2023/10/25 00:16:45;;;;;;;11.82;6.70;;;;;;;7.58;100.00;100125.50;4995198;28;20086;-48
2023/10/25 00:19:10;;;;;;;11.40;6.18;;;;;;;7.56;100.00;100120.31;4994160;28;20403;-49
2023/10/25 00:21:35;;;;;;;15.02;6.18;;;;;;;7.56;100.00;100117.69;4993861;28;20039;-48
2023/10/25 00:24:00;;;;;;;14.73;6.05;;;;;;;7.53;100.00;100115.28;4999718;28;20418;-48
2023/10/25 00:26:26;;;;;;;11.13;6.15;;;;;;;7.51;100.00;100109.25;4997447;28;20026;-48
2023/10/25 00:28:51;;;;;;;14.10;6.65;;;;;;;7.48;100.00;100116.59;4996636;28;20038;-48
2023/10/25 00:31:16;;;;;;;17.48;6.38;;;;;;;7.48;100.00;100122.69;5000864;28;20037;-49
2023/10/25 00:33:41;;;;;;;14.18;6.82;;;;;;;7.46;100.00;100118.47;4995167;28;20023;-47
2023/10/25 00:36:07;;;;;;;12.13;6.60;;;;;;;7.44;100.00;100121.22;4999587;28;20533;-48
2023/10/25 00:38:32;;;;;;;10.10;6.40;;;;;;;7.41;100.00;100122.31;4996391;28;20087;-49
2023/10/25 00:40:57;;;;;;;9.40;6.05;;;;;;;7.41;100.00;100122.31;4997683;28;20023;-49
2023/10/25 00:43:24;;;;;;;9.50;5.95;;;;;;;7.39;100.00;100118.09;4997991;28;20387;-48
2023/10/25 00:46:15;;;;;;;11.60;6.05;;;;;;;7.38;100.00;100119.91;4998295;28;20061;-49
2023/10/25 00:48:45;;;;;;;12.70;6.28;;;;;;;7.30;100.00;100117.00;4994393;28;20026;-48
2023/10/25 00:51:13;;;;;;;9.70;5.75;;;;;;;7.31;100.00;100125.75;4996382;28;20022;-47
2023/10/25 00:53:40;;;;;;;17.83;6.75;;;;;;;7.29;100.00;100125.03;4994846;28;20031;-48
2023/10/25 00:56:09;;;;;;;8.38;4.90;;;;;;;7.28;100.00;100121.56;4993010;28;20381;-48
2023/10/25 00:58:36;;;;;;;8.75;5.38;;;;;;;7.27;100.00;100114.56;4997464;28;20038;-48
2023/10/25 01:01:02;;;;;;;10.73;5.63;;;;;;;7.26;100.00;100112.91;4994807;28;20026;-48
2023/10/25 01:03:27;;;;;;;10.27;5.10;;;;;;;7.25;100.00;100107.75;4993584;28;20025;-48
2023/10/25 01:05:52;;;;;;;10.63;5.82;;;;;;;7.26;100.00;100101.47;4999667;28;20100;-49
2023/10/25 01:08:19;;;;;;;9.70;4.80;;;;;;;7.23;100.00;100102.56;4996032;28;20485;-48
2023/10/25 01:10:49;;;;;;;10.00;5.15;;;;;;;7.20;100.00;100098.34;4997388;28;20029;-48
2023/10/25 01:13:15;;;;;;;7.82;4.80;;;;;;;7.17;100.00;100095.94;4997212;28;20038;-48
2023/10/25 01:15:40;;;;;;;10.15;5.05;;;;;;;7.19;100.00;100087.88;4988371;28;20553;-49
2023/10/25 01:18:05;;;;;;;10.80;4.80;;;;;;;7.17;100.00;100092.44;4997261;28;20023;-50
2023/10/25 01:20:32;;;;;;;8.68;4.38;;;;;;;7.12;100.00;100089.31;4995922;28;20378;-49
2023/10/25 01:22:57;;;;;;;9.32;4.53;;;;;;;7.15;100.00;100092.56;4999958;28;20053;-48
2023/10/25 01:25:22;;;;;;;7.15;4.30;;;;;;;7.14;100.00;100090.88;4997078;28;20476;-49
2023/10/25 01:27:47;;;;;;;11.90;4.20;;;;;;;7.12;100.00;100081.38;4998421;28;20080;-47
2023/10/25 01:30:13;;;;;;;7.88;3.85;;;;;;;7.10;100.00;100073.56;4996096;28;20018;-47
2023/10/25 01:32:38;;;;;;;7.43;4.35;;;;;;;7.12;100.00;100066.38;4999529;28;20026;-48
2023/10/25 01:35:04;;;;;;;10.75;4.88;;;;;;;7.09;100.00;100058.69;4995652;28;20030;-49
2023/10/25 01:37:29;;;;;;;6.88;4.20;;;;;;;7.10;100.00;100060.38;4997242;28;20018;-48
2023/10/25 01:39:54;;;;;;;11.55;4.90;;;;;;;7.10;100.00;100059.53;4995867;28;20030;-47
2023/10/25 01:42:19;;;;;;;10.55;4.13;;;;;;;7.07;100.00;100051.84;4996215;28;20062;-47
2023/10/25 01:44:45;;;;;;;11.68;4.30;;;;;;;7.07;100.00;100047.41;5000112;28;20026;-48
2023/10/25 01:47:10;;;;;;;8.80;3.90;;;;;;;7.08;100.00;100046.44;4993027;28;20077;-49
2023/10/25 01:49:35;;;;;;;10.20;3.90;;;;;;;7.07;100.00;100047.41;5000433;28;20022;-49
2023/10/25 01:52:02;;;;;;;8.63;4.20;;;;;;;7.06;100.00;100051.00;5000032;28;20488;-49
2023/10/25 01:54:27;;;;;;;6.00;3.55;;;;;;;7.08;100.00;100041.16;4999917;28;20088;-48
2023/10/25 01:56:52;;;;;;;5.47;4.28;;;;;;;7.09;100.00;100042.84;4998857;28;20038;-48
2023/10/25 01:59:18;;;;;;;10.55;4.65;;;;;;;7.09;100.00;100037.56;4996717;28;20465;-48
2023/10/25 02:01:43;;;;;;;8.73;3.70;;;;;;;7.11;100.00;100032.16;4997508;28;20469;-48
2023/10/25 02:04:09;;;;;;;8.85;4.50;;;;;;;7.11;100.00;100027.75;4999011;28;20057;-49
2023/10/25 02:06:34;;;;;;;11.95;4.18;;;;;;;7.11;100.00;100025.09;4995856;28;20022;-48
2023/10/25 02:08:59;;;;;;;13.15;4.15;;;;;;;7.13;100.00;100025.81;4993661;28;20030;-48
2023/10/25 02:11:24;;;;;;;5.93;3.75;;;;;;;7.16;100.00;100024.72;4995254;28;20038;-49
2023/10/25 02:13:50;;;;;;;8.93;3.70;;;;;;;7.18;100.00;100023.66;4991412;28;20050;-48
2023/10/25 02:16:16;;;;;;;11.23;4.00;;;;;;;7.19;100.00;100028.00;4994840;28;20516;-48
2023/10/25 02:18:42;;;;;;;5.72;3.50;;;;;;;7.21;100.00;100025.22;4999571;28;20431;-48
2023/10/25 02:21:09;;;;;;;14.52;4.00;;;;;;;7.21;100.00;100020.81;5001086;28;20101;-48
2023/10/25 02:23:34;;;;;;;8.00;3.78;;;;;;;7.25;100.00;100012.66;5000377;28;20042;-47
2023/10/25 02:25:59;;;;;;;9.20;3.70;;;;;;;7.27;100.00;100008.91;5000299;28;20026;-48
2023/10/25 02:28:25;;;;;;;9.75;3.80;;;;;;;7.28;100.00;100002.69;4994924;28;20508;-48
2023/10/25 02:30:50;;;;;;;11.82;3.30;;;;;;;7.28;100.00;100001.81;5001847;28;20042;-49
2023/10/25 02:33:15;;;;;;;7.57;3.00;;;;;;;7.31;100.00;100002.47;5002918;28;20028;-49
2023/10/25 02:35:40;;;;;;;8.68;3.20;;;;;;;7.32;100.00;99998.00;4997434;28;20026;-48
2023/10/25 02:38:06;;;;;;;9.50;3.58;;;;;;;7.34;100.00;99996.09;5001907;28;20030;-48
2023/10/25 02:40:31;;;;;;;6.05;2.80;;;;;;;7.34;100.00;99990.81;4997908;28;20038;-48
2023/10/25 02:42:56;;;;;;;11.13;3.40;;;;;;;7.35;100.00;99990.69;5002321;28;20030;-49
2023/10/25 02:45:22;;;;;;;9.68;3.28;;;;;;;7.36;100.00;99984.47;4999742;28;20069;-48
2023/10/25 02:47:47;;;;;;;11.32;3.60;;;;;;;7.37;100.00;99978.19;5000469;28;20021;-48
2023/10/25 02:50:12;;;;;;;6.20;3.30;;;;;;;7.40;100.00;99980.59;4997891;28;20027;-48
2023/10/25 02:52:37;;;;;;;8.95;3.40;;;;;;;7.40;100.00;99972.69;4999567;28;20032;-48
2023/10/25 02:55:03;;;;;;;4.32;2.85;;;;;;;7.41;100.00;99971.72;5001458;28;20018;-49
2023/10/25 02:57:28;;;;;;;6.75;3.25;;;;;;;7.43;100.00;99968.97;4997627;28;20030;-48
2023/10/25 02:59:53;;;;;;;6.55;3.17;;;;;;;7.44;100.00;99965.34;4999118;28;20365;-48
2023/10/25 03:02:19;;;;;;;13.52;3.10;;;;;;;7.47;100.00;99959.00;5008122;28;20038;-48
2023/10/25 03:04:44;;;;;;;5.35;2.65;;;;;;;7.50;100.00;99956.97;5005253;28;20058;-48
2023/10/25 03:07:10;;;;;;;10.85;3.47;;;;;;;7.52;100.00;99947.09;4996957;28;20441;-48
2023/10/25 03:09:35;;;;;;;6.13;3.20;;;;;;;7.53;100.00;99947.97;5002430;28;20041;-49
2023/10/25 03:12:00;;;;;;;5.47;2.90;;;;;;;7.56;100.00;99945.91;4998163;28;20060;-48
2023/10/25 03:14:25;;;;;;;9.13;3.08;;;;;;;7.57;100.00;99938.81;5000679;28;20472;-48
2023/10/25 03:16:51;;;;;;;6.93;3.00;;;;;;;7.60;100.00;99938.59;4997649;28;20035;-48
2023/10/25 03:19:17;;;;;;;7.18;3.72;;;;;;;7.62;100.00;99935.81;5002530;28;20030;-48
2023/10/25 03:21:42;;;;;;;9.05;3.35;;;;;;;7.64;100.00;99934.72;4999561;28;20508;-49
2023/10/25 03:24:07;;;;;;;9.25;3.30;;;;;;;7.66;100.00;99935.47;4999376;28;20114;-49
2023/10/25 03:26:33;;;;;;;9.55;3.65;;;;;;;7.68;100.00;99933.53;5000280;28;20465;-47
2023/10/25 03:28:58;;;;;;;5.90;3.00;;;;;;;7.71;100.00;99928.00;4999132;28;20022;-48
2023/10/25 03:31:24;;;;;;;9.77;3.10;;;;;;;7.71;100.00;99925.38;4998317;28;20473;-48
2023/10/25 03:33:49;;;;;;;11.10;3.10;;;;;;;7.73;100.00;99922.59;5000293;28;20022;-48
2023/10/25 03:36:14;;;;;;;6.20;3.33;;;;;;;7.76;100.00;99928.47;4998381;28;20037;-48
2023/10/25 03:38:40;;;;;;;9.13;3.13;;;;;;;7.77;100.00;99924.84;5000849;28;20544;-50
2023/10/25 03:41:07;;;;;;;7.55;3.25;;;;;;;7.76;100.00;99922.34;4998959;28;20024;-48
2023/10/25 03:43:34;;;;;;;8.63;3.70;;;;;;;7.79;100.00;99922.09;5000617;28;20508;-50
2023/10/25 03:46:06;;;;;;;8.80;3.30;;;;;;;7.81;100.00;99921.97;5000318;28;20057;-48
2023/10/25 03:48:33;;;;;;;10.30;3.20;;;;;;;7.81;100.00;99922.84;4997978;28;20029;-47
2023/10/25 03:50:58;;;;;;;10.80;3.30;;;;;;;7.82;100.00;99921.84;4998286;28;20388;-48
2023/10/25 03:53:25;;;;;;;8.20;3.55;;;;;;;7.85;100.00;99915.50;4997610;28;20054;-48
2023/10/25 03:55:55;;;;;;;6.00;3.45;;;;;;;7.84;100.00;99919.91;4997396;28;20461;-48
2023/10/25 03:58:20;;;;;;;6.97;3.10;;;;;;;7.87;100.00;99903.00;5000820;28;20447;-48
2023/10/25 04:00:45;;;;;;;8.63;3.53;;;;;;;7.87;100.00;99898.53;4998640;28;20058;-48
2023/10/25 04:03:11;;;;;;;7.85;3.50;;;;;;;7.88;100.00;99904.69;5001699;28;20033;-48
2023/10/25 04:05:39;;;;;;;9.13;3.42;;;;;;;7.87;100.00;99901.19;5000913;28;20022;-48
2023/10/25 04:08:04;;;;;;;9.20;3.55;;;;;;;7.90;100.00;99903.56;5000193;28;20030;-47
2023/10/25 04:10:29;;;;;;;11.45;3.80;;;;;;;7.89;100.00;99907.19;5000145;28;20025;-48
2023/10/25 04:12:55;;;;;;;10.73;3.42;;;;;;;7.91;100.00;99899.97;4997542;28;20072;-48
2023/10/25 04:15:20;;;;;;;6.95;3.80;;;;;;;7.93;100.00;99905.97;4997716;28;20059;-49
2023/10/25 04:17:45;;;;;;;11.02;3.70;;;;;;;7.94;100.00;99901.53;4998246;28;20061;-48
2023/10/25 04:20:11;;;;;;;5.35;3.05;;;;;;;7.92;100.00;99895.53;4999226;28;20037;-48
2023/10/25 04:22:37;;;;;;;6.75;3.33;;;;;;;7.94;100.00;99898.88;4997619;28;20026;-49
2023/10/25 04:25:03;;;;;;;7.63;3.65;;;;;;;7.95;100.00;99906.69;5000714;28;20034;-48
2023/10/25 04:27:29;;;;;;;9.05;3.58;;;;;;;7.97;100.00;99893.34;4997021;28;20101;-48
2023/10/25 04:29:55;;;;;;;8.07;3.42;;;;;;;7.99;100.00;99904.63;4998332;28;20056;-48
2023/10/25 04:32:20;;;;;;;11.23;3.70;;;;;;;7.99;100.00;99891.41;4995899;28;20597;-48
2023/10/25 04:34:46;;;;;;;9.70;3.97;;;;;;;8.00;100.00;99894.91;4997920;28;20117;-47
2023/10/25 04:37:11;;;;;;;6.65;3.38;;;;;;;8.00;100.00;99887.81;5000622;28;20029;-48
2023/10/25 04:39:36;;;;;;;11.90;3.83;;;;;;;8.01;100.00;99883.34;5008761;28;20034;-48
2023/10/25 04:42:02;;;;;;;6.70;3.63;;;;;;;8.05;100.00;99887.44;4996334;28;20045;-48
2023/10/25 04:44:27;;;;;;;6.20;3.63;;;;;;;8.05;100.00;99877.69;4997727;28;20026;-48
2023/10/25 04:46:52;;;;;;;7.25;3.67;;;;;;;8.06;100.00;99871.44;5001773;28;20054;-48
2023/10/25 04:49:18;;;;;;;7.65;3.38;;;;;;;8.08;100.00;99871.34;4999223;28;20034;-48
2023/10/25 04:51:43;;;;;;;11.02;3.88;;;;;;;8.10;100.00;99872.03;4999812;28;20026;-47
2023/10/25 04:54:08;;;;;;;15.18;3.83;;;;;;;8.09;100.00;99865.91;5000816;28;20369;-48
2023/10/25 04:56:33;;;;;;;8.82;4.05;;;;;;;8.11;100.00;99863.97;4996546;28;20090;-48
2023/10/25 04:58:59;;;;;;;10.75;4.05;;;;;;;8.11;100.00;99853.41;5004027;28;20465;-48
2023/10/25 05:01:24;;;;;;;7.43;3.70;;;;;;;8.12;100.00;99852.41;4997326;28;20022;-50
2023/10/25 05:03:49;;;;;;;10.27;3.78;;;;;;;8.14;100.00;99847.00;5001771;28;20026;-49
2023/10/25 05:06:15;;;;;;;8.10;3.70;;;;;;;8.14;100.00;99847.00;4996685;28;20160;-50
2023/10/25 05:08:41;;;;;;;7.32;4.03;;;;;;;8.13;100.00;99840.88;4998113;28;20029;-49
2023/10/25 05:11:07;;;;;;;8.43;3.78;;;;;;;8.14;100.00;99844.34;4998666;28;20117;-47
2023/10/25 05:13:33;;;;;;;7.78;3.80;;;;;;;8.14;100.00;99837.28;4999115;28;20104;-47
2023/10/25 05:15:59;;;;;;;9.05;3.72;;;;;;;8.16;100.00;99829.22;4995840;28;20527;-47
2023/10/25 05:18:26;;;;;;;9.98;4.15;;;;;;;8.17;100.00;99833.53;4999999;28;20033;-49
2023/10/25 05:20:57;;;;;;;8.32;4.15;;;;;;;8.17;100.00;99822.94;4999869;28;20033;-49
2023/10/25 05:23:27;;;;;;;7.88;4.00;;;;;;;8.17;100.00;99820.31;4995940;28;20060;-48
2023/10/25 05:25:53;;;;;;;6.95;3.60;;;;;;;8.18;100.00;99816.69;4997901;28;20041;-49
2023/10/25 05:28:19;;;;;;;8.20;3.90;;;;;;;8.18;100.00;99814.06;5000388;28;20034;-48
2023/10/25 05:30:45;;;;;;;10.35;3.45;;;;;;;8.19;100.00;99809.59;4997984;28;20022;-48
2023/10/25 05:33:13;;;;;;;9.98;4.00;;;;;;;8.19;100.00;99810.44;5009310;28;20018;-48
2023/10/25 05:35:39;;;;;;;10.80;3.60;;;;;;;8.20;100.00;99808.66;4993585;28;20026;-48
2023/10/25 05:38:06;;;;;;;9.20;3.90;;;;;;;8.20;100.00;99808.66;4992862;28;20473;-47
2023/10/25 05:40:31;;;;;;;7.93;3.40;;;;;;;8.20;100.00;99804.19;5002038;28;20038;-47
2023/10/25 05:43:00;;;;;;;8.52;3.42;;;;;;;8.21;100.00;99797.06;5035759;28;20027;-47
2023/10/25 05:45:26;;;;;;;9.88;3.38;;;;;;;8.22;100.00;99796.13;5001175;28;20045;-47
2023/10/25 05:47:51;;;;;;;7.63;3.42;;;;;;;8.22;100.00;99794.31;4995746;28;20506;-48
2023/10/25 05:50:17;;;;;;;8.48;3.60;;;;;;;8.22;100.00;99785.53;4999038;28;20067;-48
2023/10/25 05:52:44;;;;;;;13.00;4.93;;;;;;;8.23;100.00;99790.72;4997835;28;20104;-47
2023/10/25 05:55:14;;;;;;;7.40;3.60;;;;;;;8.23;100.00;99790.72;5007075;28;20500;-48
2023/10/25 05:57:39;;;;;;;9.85;3.67;;;;;;;8.24;100.00;99779.13;4998934;28;20117;-48
2023/10/25 06:00:06;;;;;;;13.77;3.83;;;;;;;8.25;100.00;99785.28;5016192;28;20103;-47
2023/10/25 06:02:33;;;;;;;6.78;3.60;;;;;;;8.26;100.00;99782.50;5019587;28;20026;-48
2023/10/25 06:05:00;;;;;;;7.70;3.63;;;;;;;8.27;100.00;99783.34;4998224;28;20019;-47
2023/10/25 06:07:26;;;;;;;8.50;3.72;;;;;;;8.28;100.00;99779.75;5004794;28;20040;-47
2023/10/25 06:09:52;;;;;;;7.68;3.78;;;;;;;8.28;100.00;99779.75;5000366;28;20053;-46
2023/10/25 06:12:17;;;;;;;9.40;3.78;;;;;;;8.29;100.00;99776.09;4992869;28;20061;-47
2023/10/25 06:14:43;;;;;;;6.43;3.45;;;;;;;8.32;100.00;99778.50;4995477;28;20068;-47
2023/10/25 06:17:08;;;;;;;7.30;3.60;;;;;;;8.32;100.00;99774.03;4995757;28;20037;-48
2023/10/25 06:19:33;;;;;;;6.82;3.90;;;;;;;8.34;100.00;99771.28;4992536;28;20031;-47
2023/10/25 06:21:59;;;;;;;9.65;3.47;;;;;;;8.34;100.00;99763.34;4990860;28;20038;-47
2023/10/25 06:24:24;;;;;;;8.00;3.40;;;;;;;8.34;100.00;99750.97;4994107;28;20084;-47
2023/10/25 06:26:50;;;;;;;9.68;3.75;;;;;;;8.37;100.00;99754.31;4995513;28;20097;-48
2023/10/25 06:29:15;;;;;;;9.32;3.30;;;;;;;8.38;100.00;99748.88;4995212;28;20091;-48
2023/10/25 06:31:40;;;;;;;12.05;3.55;;;;;;;8.39;100.00;99745.25;4993963;28;20469;-47
2023/10/25 06:34:05;;;;;;;4.88;2.92;;;;;;;8.38;100.00;99733.03;4994862;28;20026;-48
2023/10/25 06:36:32;;;;;;;6.40;3.70;;;;;;;8.42;100.00;99733.59;4994857;28;20023;-47
2023/10/25 06:38:57;;;;;;;11.00;3.30;;;;;;;8.43;100.00;99737.97;4997134;28;20079;-48
2023/10/25 06:41:23;;;;;;;4.50;3.05;;;;;;;8.44;100.00;99731.69;4993529;28;20034;-48
2023/10/25 06:43:49;;;;;;;5.88;2.85;;;;;;;8.45;100.00;99731.53;4999032;28;20031;-48
2023/10/25 06:46:15;;;;;;;11.10;3.08;;;;;;;8.46;100.00;99727.06;4994222;28;20054;-48
2023/10/25 06:48:41;;;;;;;6.28;2.83;;;;;;;8.49;100.00;99721.53;4991395;28;20041;-48
2023/10/25 06:51:08;;;;;;;7.68;2.95;;;;;;;8.50;100.00;99721.41;4990359;28;20024;-48
2023/10/25 06:53:35;;;;;;;6.05;2.90;;;;;;;8.49;100.00;99714.44;4994016;28;20078;-48
2023/10/25 06:56:01;;;;;;;9.57;3.60;;;;;;;8.51;100.00;99715.16;4996508;28;20034;-48
2023/10/25 06:58:27;;;;;;;8.35;3.20;;;;;;;8.54;100.00;99706.09;4994003;28;20040;-49
2023/10/25 07:00:55;;;;;;;8.05;3.00;;;;;;;8.57;100.00;99705.00;4996278;28;20045;-47
2023/10/25 07:03:26;;;;;;;7.00;3.03;;;;;;;8.59;100.00;99700.41;4995204;28;20489;-48
2023/10/25 07:05:55;;;;;;;6.75;3.00;;;;;;;8.59;100.00;99697.75;4991995;28;20120;-47
2023/10/25 07:08:21;;;;;;;6.18;2.90;;;;;;;8.61;100.00;99687.88;4996986;28;20066;-49
2023/10/25 07:10:47;;;;;;;6.60;2.80;;;;;;;8.63;100.00;99694.72;4998093;28;20105;-46
2023/10/25 07:13:12;;;;;;;5.13;3.03;;;;;;;8.65;100.00;99692.78;4997317;28;20122;-48
2023/10/25 07:15:37;;;;;;;6.22;3.10;;;;;;;8.67;100.00;99680.22;5003357;28;20027;-47
2023/10/25 07:18:03;;;;;;;7.05;3.03;;;;;;;8.69;100.00;99688.03;4996452;28;20364;-48
2023/10/25 07:20:28;;;;;;;5.25;2.88;;;;;;;8.69;100.00;99691.56;4996334;28;20059;-48
2023/10/25 07:22:53;;;;;;;6.70;2.90;;;;;;;8.70;100.00;99685.25;4995241;28;20030;-48
2023/10/25 07:25:19;;;;;;;6.35;2.70;;;;;;;8.72;100.00;99686.94;4995688;28;20670;-48
2023/10/25 07:27:44;;;;;;;6.22;2.90;;;;;;;8.72;100.00;99687.78;4994518;28;20033;-49
2023/10/25 07:30:10;;;;;;;8.50;3.10;;;;;;;8.73;100.00;99683.31;4994062;28;20022;-48
2023/10/25 07:32:35;;;;;;;7.72;3.17;;;;;;;8.71;100.00;99675.53;4996217;28;20532;-50
2023/10/25 07:35:01;;;;;;;7.85;3.65;;;;;;;8.71;100.00;99675.53;4999297;28;20339;-48
2023/10/25 07:37:26;;;;;;;7.03;3.40;;;;;;;8.72;100.00;99673.72;4996001;28;20080;-48
2023/10/25 07:39:52;;;;;;;7.03;3.40;;;;;;;8.71;100.00;99667.59;4996195;28;20053;-48
2023/10/25 07:42:17;;;;;;;16.08;4.00;;;;;;;8.72;100.00;99665.78;4999166;28;20430;-48
2023/10/25 07:44:42;;;;;;;14.20;3.65;;;;;;;8.73;100.00;99648.91;4994984;28;20018;-48
2023/10/25 07:47:08;;;;;;;7.85;3.22;;;;;;;8.75;100.00;99655.75;4998611;28;20087;-48
2023/10/25 07:49:36;;;;;;;6.72;3.28;;;;;;;8.76;100.00;99652.13;4999403;28;20034;-47
2023/10/25 07:52:03;;;;;;;10.85;4.18;;;;;;;8.76;100.00;99646.84;5002399;28;20033;-48
2023/10/25 07:54:28;;;;;;;9.82;3.25;;;;;;;8.78;100.00;99641.41;5003537;28;20065;-47
2023/10/25 07:56:54;;;;;;;6.97;3.45;;;;;;;8.81;100.00;99631.38;5000382;28;20050;-48
2023/10/25 07:59:19;;;;;;;6.18;3.72;;;;;;;8.85;100.00;99629.28;4996003;28;20393;-48
2023/10/25 08:01:44;;;;;;;8.98;3.22;;;;;;;8.85;100.00;99621.34;5001533;28;20034;-47
2023/10/25 08:04:10;;;;;;;7.65;3.55;;;;;;;8.87;100.00;99614.94;4997507;28;20526;-47
2023/10/25 08:06:35;;;;;;;6.40;3.10;;;;;;;8.88;100.00;99616.63;4997665;28;20540;-47
2023/10/25 08:09:00;;;;;;;7.05;3.53;;;;;;;8.90;100.00;99621.78;5002548;28;20022;-47
2023/10/25 08:11:26;;;;;;;9.15;3.38;;;;;;;8.93;100.00;99620.69;4976946;28;20125;-47
2023/10/25 08:13:51;;;;;;;10.25;2.97;;;;;;;8.94;100.00;99609.94;4996057;28;20030;-47
2023/10/25 08:16:17;;;;;;;5.88;3.40;;;;;;;8.95;100.00;99611.59;4994567;28;20034;-47
2023/10/25 08:18:42;;;;;;;7.93;3.50;;;;;;;8.97;100.00;99599.06;4989666;28;20538;-48
2023/10/25 08:21:14;;;;;;;7.47;3.30;;;;;;;8.99;100.00;99596.28;4993730;28;20380;-48
2023/10/25 08:23:39;;;;;;;7.85;3.75;;;;;;;9.01;100.00;99602.25;5000002;28;20037;-48
2023/10/25 08:26:05;;;;;;;7.07;3.20;;;;;;;9.03;100.00;99597.69;4997562;28;20441;-47
2023/10/25 08:28:30;;;;;;;7.05;3.22;;;;;;;9.04;100.00;99586.97;4995207;28;20180;-50
2023/10/25 08:30:56;;;;;;;6.85;3.10;;;;;;;9.06;100.00;99589.47;5001611;28;20022;-47
2023/10/25 08:33:21;;;;;;;6.05;3.00;;;;;;;9.08;100.00;99588.34;4995209;28;20045;-47
2023/10/25 08:35:47;;;;;;;5.95;3.13;;;;;;;9.09;100.00;99583.88;4999736;28;20041;-48
2023/10/25 08:38:12;;;;;;;5.05;3.00;;;;;;;9.11;100.00;99576.66;4998042;28;20488;-48
2023/10/25 08:40:40;;;;;;;7.32;3.17;;;;;;;9.11;100.00;99560.75;4994621;28;20061;-47
2023/10/25 08:43:06;;;;;;;10.27;3.13;;;;;;;9.13;100.00;99563.25;4996260;28;20022;-47
2023/10/25 08:45:35;;;;;;;10.52;2.90;;;;;;;9.13;100.00;99542.91;4996175;28;20057;-47
2023/10/25 08:48:04;;;;;;;8.35;3.47;;;;;;;9.14;100.00;99544.56;4994646;28;20061;-47
2023/10/25 08:50:32;;;;;;;;;;;;;;;9.23;100.00;99558.78;4998040;28;20038;-47
2023/10/25 08:52:59;;;;;;;8.98;3.17;;;;;;;9.19;100.00;99560.91;4998770;28;19925;-47
2023/10/25 08:55:24;;;;;;;11.20;4.20;;;;;;;9.19;100.00;99552.09;4994045;28;20033;-48
2023/10/25 08:57:55;;;;;;;9.02;3.90;;;;;;;9.20;100.00;99540.53;4999858;28;20465;-48
2023/10/25 09:00:22;;;;;;;5.47;3.00;;;;;;;9.21;100.00;99539.56;5003503;28;20022;-48
2023/10/25 09:02:48;;;;;;;7.65;3.60;;;;;;;9.23;100.00;99532.31;4998067;28;20026;-48
2023/10/25 09:05:13;;;;;;;5.60;4.00;;;;;;;9.22;100.00;99525.31;4993915;28;20113;-48
2023/10/25 09:07:38;;;;;;;6.32;3.53;;;;;;;9.21;100.00;99521.03;4998251;28;20493;-48
2023/10/25 09:10:11;;;;;;;6.30;3.75;;;;;;;9.22;100.00;99526.16;5000631;28;20026;-48
2023/10/25 09:12:37;;;;;;;9.65;4.15;;;;;;;9.23;100.00;99521.69;4994270;28;20041;-48
2023/10/25 09:15:03;;;;;;;8.63;3.70;;;;;;;9.23;100.00;99521.69;4996544;28;20018;-48
2023/10/25 09:17:31;;;;;;;5.03;3.35;;;;;;;9.22;100.00;99523.50;4996293;28;20072;-48
2023/10/25 09:19:56;;;;;;;6.20;3.67;;;;;;;9.23;100.00;99529.66;4990014;28;20094;-48
2023/10/25 09:22:22;;;;;;;7.40;4.07;;;;;;;9.22;100.00;99526.16;4994508;28;20458;-48
2023/10/25 09:24:49;;;;;;;8.50;3.70;;;;;;;9.23;100.00;99529.66;4998272;28;20030;-48
2023/10/25 09:27:14;;;;;;;6.97;3.78;;;;;;;9.21;100.00;99529.78;4999942;28;20085;-48
2023/10/25 09:29:39;;;;;;;7.05;3.58;;;;;;;9.20;100.00;99517.50;4998915;28;20480;-48
2023/10/25 09:32:06;;;;;;;8.40;3.90;;;;;;;9.21;100.00;99515.72;4993616;28;20027;-47
2023/10/25 09:34:33;;;;;;;9.68;3.67;;;;;;;9.22;100.00;99504.13;4998220;28;20034;-47
2023/10/25 09:37:00;;;;;;;8.15;3.53;;;;;;;9.20;100.00;99500.78;4998920;28;20075;-47
2023/10/25 09:39:25;;;;;;;6.18;3.60;;;;;;;9.20;100.00;99493.66;4991233;28;20038;-47
2023/10/25 09:41:52;;;;;;;9.43;3.67;;;;;;;9.20;100.00;99492.84;4999022;28;20030;-47
2023/10/25 09:44:22;;;;;;;7.88;4.00;;;;;;;9.18;100.00;99479.72;4991606;28;20027;-47
2023/10/25 09:46:50;;;;;;;5.75;4.30;;;;;;;9.16;100.00;99479.06;4988505;28;20580;-47
2023/10/25 09:49:16;;;;;;;6.50;4.00;;;;;;;9.17;100.00;99470.09;4989843;28;20072;-48
2023/10/25 09:52:01;;;;;;;6.15;3.90;;;;;;;9.19;100.00;99472.63;5001338;28;20448;-48
2023/10/25 09:54:33;;;;;;;7.95;4.20;;;;;;;9.15;100.00;99466.78;5015545;28;20061;-47
2023/10/25 09:56:59;;;;;;;8.07;4.22;;;;;;;9.13;100.00;99466.09;5022265;28;20034;-49
2023/10/25 09:59:26;;;;;;;10.40;4.38;;;;;;;9.13;100.00;99462.59;4999209;28;20559;-48
2023/10/25 10:01:54;;;;;;;8.98;4.63;;;;;;;9.12;100.00;99455.63;5011453;28;20480;-49
2023/10/25 10:04:53;;;;;;;7.82;4.53;;;;;;;9.14;100.00;99458.97;4996584;28;20056;-51
2023/10/25 10:07:37;;;;;;;;;;;;;;;9.16;100.00;99449.06;5006487;28;20056;-49
2023/10/25 10:10:22;;;;;;;7.15;4.55;;;;;;;9.10;100.00;99439.06;4999409;28;19960;-49
2023/10/25 10:12:48;;;;;;;7.80;4.65;;;;;;;9.10;100.00;99442.53;4992740;28;20046;-50
2023/10/25 10:15:14;;;;;;;5.40;4.82;;;;;;;9.09;100.00;99435.53;4995718;28;20543;-50
2023/10/25 10:17:44;;;;;;;6.80;4.82;;;;;;;9.10;100.00;99420.50;4999478;28;20039;-49
2023/10/25 10:20:23;;;;;;;7.50;5.43;;;;;;;9.11;100.00;99416.88;4998859;28;20022;-50
2023/10/25 10:23:05;;;;;;;10.07;4.97;;;;;;;9.12;100.00;99410.59;4988730;28;20054;-49
2023/10/25 10:25:50;;;;;;;10.50;5.78;;;;;;;9.12;100.00;99407.94;4996395;28;20484;-50
2023/10/25 10:28:16;;;;;;;8.02;5.38;;;;;;;9.12;100.00;99400.81;4999163;28;20079;-49
2023/10/25 10:30:42;;;;;;;7.07;5.28;;;;;;;9.12;100.00;99397.34;4998434;28;20072;-49
2023/10/25 10:33:12;;;;;;;9.90;5.25;;;;;;;9.13;100.00;99385.78;4994962;28;20065;-49
2023/10/25 10:36:03;;;;;;;6.05;4.53;;;;;;;9.15;100.00;99386.47;4992835;28;20030;-49
2023/10/25 10:39:07;;;;;;;7.03;5.43;;;;;;;9.16;100.00;99381.03;5000750;28;20136;-49
2023/10/25 10:41:32;;;;;;;9.02;5.28;;;;;;;9.17;100.00;99373.91;5007183;28;20036;-52
2023/10/25 10:43:58;;;;;;;8.35;5.05;;;;;;;9.18;100.00;99371.13;5002427;28;20145;-50
2023/10/25 10:46:29;;;;;;;9.77;4.93;;;;;;;9.19;100.00;99361.34;4995773;28;20046;-49
2023/10/25 10:49:00;;;;;;;7.05;4.75;;;;;;;9.20;100.00;99361.22;4998106;28;20465;-50
2023/10/25 10:51:27;;;;;;;6.63;4.60;;;;;;;9.22;100.00;99361.06;4996403;28;20026;-49
2023/10/25 10:53:52;;;;;;;7.97;4.40;;;;;;;9.24;100.00;99356.44;4996466;28;20026;-50
2023/10/25 10:56:17;;;;;;;6.05;4.53;;;;;;;9.26;100.00;99338.63;4999023;28;20033;-49
2023/10/25 10:58:43;;;;;;;6.65;4.78;;;;;;;9.26;100.00;99330.66;4999084;28;20383;-49
2023/10/25 11:01:09;;;;;;;6.35;4.50;;;;;;;9.26;100.00;99338.63;5004404;28;20026;-49
2023/10/25 11:03:36;;;;;;;6.53;4.68;;;;;;;9.28;100.00;99322.56;4997933;28;20125;-49
2023/10/25 11:06:03;;;;;;;6.70;4.82;;;;;;;9.27;100.00;99313.78;4995712;28;20026;-48
2023/10/25 11:08:30;;;;;;;7.28;5.43;;;;;;;9.27;100.00;99305.81;4998885;28;20037;-48
2023/10/25 11:10:55;;;;;;;8.48;5.18;;;;;;;9.29;100.00;99308.34;4996508;28;20495;-48
2023/10/25 11:13:21;;;;;;;10.20;5.03;;;;;;;9.30;100.00;99307.34;4995103;28;20037;-49
2023/10/25 11:15:46;;;;;;;6.18;4.93;;;;;;;9.31;100.00;99301.06;4999391;28;20051;-48
2023/10/25 11:18:12;;;;;;;6.60;4.90;;;;;;;9.31;100.00;99301.06;4997722;28;20070;-48
2023/10/25 11:20:41;;;;;;;6.53;4.90;;;;;;;9.32;100.00;99287.66;4996345;28;20030;-48
2023/10/25 11:23:06;;;;;;;7.88;4.78;;;;;;;9.32;100.00;99287.66;4998932;28;20365;-48
2023/10/25 11:25:32;;;;;;;8.90;4.90;;;;;;;9.34;100.00;99280.44;4989334;28;20257;-47
2023/10/25 11:27:57;;;;;;;8.40;4.60;;;;;;;9.36;100.00;99280.25;4996874;28;20030;-47